Airfield :
LOGIN :

Register | Disclaimer

   EN    FR    IT 

 










Legend :    VFR   Marginal VFR   IFR   Intensive IFR   Very Intensive IFR
Visi :
Ceiling :
>= 8 km
>= 3000ft
5 to 8 km
1000 to 3000 ft
1500m to 5 km
500 to 1000 ft
800 to 1500m
200 to 500 ft
< 800m
< 200 ft
Symbols :   Thunderstorms  Fog  Heavy snow  Heavy precipitations  Wind > 20 kt
SIGMETs :     Misc.  Thunderstorms  Icing  Turbulence  Mountain Waves  Volcanic Ashes







- Airport Elevation : 408 ft
- IATA code : FKB


EDSB - Karlsruhe Baden Baden

CURRENT METAR :
  • 160250Z 06005KT 030V100 9999 -SHRA SCT048 17/16 Q1014

EXPIRED METARs :
  • 160220Z AUTO 09007KT 9999 SCT066/// OVC095/// 18/16 Q1015
  • 160150Z AUTO 08007KT 9999 BKN069/// OVC087/// 18/17 Q1015
  • 160120Z AUTO 07006KT 9999 BKN079/// OVC100/// 18/17 Q1015
  • 160050Z AUTO 01007KT 320V030 9999 FEW088/// OVC100/// 18/16 Q1015
  • 160020Z AUTO VRB02KT 9999 BKN090/// OVC110/// 18/16 Q1015

TAF TAF EDSB
Valid from the 15 at 18:00 until the 16 at 18:00 UTC


151700Z 1518/1618 36005KT CAVOK
BECMG 1518/1520 VRB03KT
TEMPO 1518/1606 SHRA SCT045CB
PROB30
TEMPO 1518/1606 TSRA BKN040CB
BECMG 1612/1614 02005KT
PROB30
TEMPO 1612/1618 TSRA SCT045CB
No reported NOTAMs for that airfield.



MET'MAP, your aeronautical weather chart ! - Copyright ORBIFLY December 2007 - Disclaimer

ORBIFLY MET'MAP TEAM :

Programming & Development : Alexandra Zaïnal
Concept & Development : Baudouin d'Aumeries
Co-Development & Prog : Marc-Olivier Méhu
Technical & hardware support : Manuel Goepfert

Contact : metmap@orbifly.com




SOURCES & CREDITS :

   NOAA